sensor_id;sensor_type;location;lat;lon;timestamp;P1;durP1;ratioP1;P2;durP2;ratioP2
72974;SDS011;61166;54.228;37.632;2023-04-24T00:00:18;19.27;;;11.23;;
72974;SDS011;61166;54.228;37.632;2023-04-24T00:02:44;20.50;;;11.30;;
72974;SDS011;61166;54.228;37.632;2023-04-24T00:05:11;21.27;;;11.57;;
72974;SDS011;61166;54.228;37.632;2023-04-24T00:07:38;16.50;;;9.07;;
72974;SDS011;61166;54.228;37.632;2023-04-24T00:10:04;13.85;;;8.50;;
72974;SDS011;61166;54.228;37.632;2023-04-24T00:12:31;19.00;;;11.35;;
72974;SDS011;61166;54.228;37.632;2023-04-24T00:14:57;18.08;;;10.27;;
72974;SDS011;61166;54.228;37.632;2023-04-24T00:17:24;19.25;;;10.18;;
72974;SDS011;61166;54.228;37.632;2023-04-24T00:19:50;20.53;;;9.23;;
72974;SDS011;61166;54.228;37.632;2023-04-24T00:22:16;15.00;;;7.60;;
72974;SDS011;61166;54.228;37.632;2023-04-24T00:24:43;24.65;;;6.93;;
72974;SDS011;61166;54.228;37.632;2023-04-24T00:27:09;14.02;;;7.88;;
72974;SDS011;61166;54.228;37.632;2023-04-24T00:29:36;3.72;;;2.05;;
72974;SDS011;61166;54.228;37.632;2023-04-24T00:32:02;9.30;;;3.67;;
72974;SDS011;61166;54.228;37.632;2023-04-24T00:34:28;19.33;;;10.05;;
72974;SDS011;61166;54.228;37.632;2023-04-24T00:36:55;15.07;;;9.77;;
72974;SDS011;61166;54.228;37.632;2023-04-24T00:39:21;17.63;;;9.68;;
72974;SDS011;61166;54.228;37.632;2023-04-24T00:41:48;17.00;;;9.68;;
72974;SDS011;61166;54.228;37.632;2023-04-24T00:44:14;13.53;;;8.00;;
72974;SDS011;61166;54.228;37.632;2023-04-24T00:46:41;13.75;;;6.18;;
72974;SDS011;61166;54.228;37.632;2023-04-24T00:49:07;15.80;;;8.80;;
72974;SDS011;61166;54.228;37.632;2023-04-24T00:51:34;19.90;;;10.40;;
72974;SDS011;61166;54.228;37.632;2023-04-24T00:54:01;18.38;;;10.18;;
72974;SDS011;61166;54.228;37.632;2023-04-24T00:56:27;22.93;;;11.77;;
72974;SDS011;61166;54.228;37.632;2023-04-24T00:58:54;15.50;;;7.40;;
72974;SDS011;61166;54.228;37.632;2023-04-24T01:01:21;14.13;;;9.00;;
72974;SDS011;61166;54.228;37.632;2023-04-24T01:03:49;19.63;;;11.35;;
72974;SDS011;61166;54.228;37.632;2023-04-24T01:06:15;22.38;;;11.50;;
72974;SDS011;61166;54.228;37.632;2023-04-24T01:08:42;17.37;;;10.13;;
72974;SDS011;61166;54.228;37.632;2023-04-24T01:11:09;17.92;;;10.45;;
72974;SDS011;61166;54.228;37.632;2023-04-24T01:13:35;20.50;;;10.85;;
72974;SDS011;61166;54.228;37.632;2023-04-24T01:16:02;20.35;;;10.52;;
72974;SDS011;61166;54.228;37.632;2023-04-24T01:18:29;18.20;;;10.70;;
72974;SDS011;61166;54.228;37.632;2023-04-24T01:20:59;22.63;;;11.57;;
72974;SDS011;61166;54.228;37.632;2023-04-24T01:23:26;18.15;;;9.00;;
72974;SDS011;61166;54.228;37.632;2023-04-24T01:25:52;17.88;;;9.13;;
72974;SDS011;61166;54.228;37.632;2023-04-24T01:28:19;20.17;;;10.32;;
72974;SDS011;61166;54.228;37.632;2023-04-24T01:30:45;14.82;;;9.88;;
72974;SDS011;61166;54.228;37.632;2023-04-24T01:33:12;21.10;;;9.93;;
72974;SDS011;61166;54.228;37.632;2023-04-24T01:35:38;21.08;;;10.13;;
72974;SDS011;61166;54.228;37.632;2023-04-24T01:38:05;21.75;;;11.15;;
72974;SDS011;61166;54.228;37.632;2023-04-24T01:40:32;15.95;;;9.02;;
72974;SDS011;61166;54.228;37.632;2023-04-24T01:42:58;19.77;;;10.25;;
72974;SDS011;61166;54.228;37.632;2023-04-24T01:45:25;23.03;;;10.97;;
72974;SDS011;61166;54.228;37.632;2023-04-24T01:47:51;25.17;;;10.98;;
72974;SDS011;61166;54.228;37.632;2023-04-24T01:50:18;20.00;;;11.30;;
72974;SDS011;61166;54.228;37.632;2023-04-24T01:52:44;18.08;;;9.52;;
72974;SDS011;61166;54.228;37.632;2023-04-24T01:55:11;20.30;;;10.30;;
72974;SDS011;61166;54.228;37.632;2023-04-24T01:57:37;20.33;;;10.47;;
72974;SDS011;61166;54.228;37.632;2023-04-24T02:00:04;21.80;;;10.65;;
72974;SDS011;61166;54.228;37.632;2023-04-24T02:02:31;22.58;;;10.18;;
72974;SDS011;61166;54.228;37.632;2023-04-24T02:04:58;17.42;;;9.98;;
72974;SDS011;61166;54.228;37.632;2023-04-24T02:07:24;17.58;;;9.90;;
72974;SDS011;61166;54.228;37.632;2023-04-24T02:09:50;17.50;;;10.40;;
72974;SDS011;61166;54.228;37.632;2023-04-24T02:12:17;20.77;;;11.00;;
72974;SDS011;61166;54.228;37.632;2023-04-24T02:14:43;18.55;;;10.55;;
72974;SDS011;61166;54.228;37.632;2023-04-24T02:17:10;19.25;;;11.13;;
72974;SDS011;61166;54.228;37.632;2023-04-24T02:19:36;17.67;;;10.85;;
72974;SDS011;61166;54.228;37.632;2023-04-24T02:22:03;21.63;;;10.30;;
72974;SDS011;61166;54.228;37.632;2023-04-24T02:24:29;25.35;;;12.35;;
72974;SDS011;61166;54.228;37.632;2023-04-24T02:26:55;24.88;;;12.15;;
72974;SDS011;61166;54.228;37.632;2023-04-24T02:29:22;19.08;;;10.85;;
72974;SDS011;61166;54.228;37.632;2023-04-24T02:31:48;21.35;;;12.43;;
72974;SDS011;61166;54.228;37.632;2023-04-24T02:34:15;25.37;;;12.73;;
72974;SDS011;61166;54.228;37.632;2023-04-24T02:36:41;20.67;;;13.02;;
72974;SDS011;61166;54.228;37.632;2023-04-24T02:39:07;21.83;;;13.65;;
72974;SDS011;61166;54.228;37.632;2023-04-24T02:41:34;25.05;;;14.65;;
72974;SDS011;61166;54.228;37.632;2023-04-24T02:44:00;22.52;;;14.85;;
72974;SDS011;61166;54.228;37.632;2023-04-24T02:46:27;26.83;;;15.80;;
72974;SDS011;61166;54.228;37.632;2023-04-24T02:48:53;28.33;;;15.57;;
72974;SDS011;61166;54.228;37.632;2023-04-24T02:51:20;19.23;;;12.18;;
72974;SDS011;61166;54.228;37.632;2023-04-24T02:53:46;19.38;;;12.57;;
72974;SDS011;61166;54.228;37.632;2023-04-24T02:56:13;22.83;;;13.10;;
72974;SDS011;61166;54.228;37.632;2023-04-24T02:58:40;19.70;;;12.73;;
72974;SDS011;61166;54.228;37.632;2023-04-24T03:01:07;18.35;;;12.00;;
72974;SDS011;61166;54.228;37.632;2023-04-24T03:03:33;16.20;;;11.95;;
72974;SDS011;61166;54.228;37.632;2023-04-24T03:06:00;21.02;;;11.45;;
72974;SDS011;61166;54.228;37.632;2023-04-24T03:08:26;20.52;;;13.15;;
72974;SDS011;61166;54.228;37.632;2023-04-24T03:10:53;17.47;;;12.30;;
72974;SDS011;61166;54.228;37.632;2023-04-24T03:13:19;24.73;;;13.95;;
72974;SDS011;61166;54.228;37.632;2023-04-24T03:15:46;17.38;;;13.50;;
72974;SDS011;61166;54.228;37.632;2023-04-24T03:18:12;22.02;;;13.95;;
72974;SDS011;61166;54.228;37.632;2023-04-24T03:20:39;19.50;;;14.85;;
72974;SDS011;61166;54.228;37.632;2023-04-24T03:23:05;21.27;;;14.27;;
72974;SDS011;61166;54.228;37.632;2023-04-24T03:25:31;22.00;;;15.48;;
72974;SDS011;61166;54.228;37.632;2023-04-24T03:27:58;22.08;;;16.17;;
72974;SDS011;61166;54.228;37.632;2023-04-24T03:30:24;22.45;;;16.25;;
72974;SDS011;61166;54.228;37.632;2023-04-24T03:32:50;19.77;;;16.63;;
72974;SDS011;61166;54.228;37.632;2023-04-24T03:35:18;21.33;;;15.97;;
72974;SDS011;61166;54.228;37.632;2023-04-24T03:37:44;21.27;;;16.55;;
72974;SDS011;61166;54.228;37.632;2023-04-24T03:40:10;22.80;;;18.13;;
72974;SDS011;61166;54.228;37.632;2023-04-24T03:42:37;25.52;;;19.23;;
72974;SDS011;61166;54.228;37.632;2023-04-24T03:45:05;25.60;;;17.52;;
72974;SDS011;61166;54.228;37.632;2023-04-24T03:47:31;27.33;;;19.03;;
72974;SDS011;61166;54.228;37.632;2023-04-24T03:49:58;23.55;;;14.15;;
72974;SDS011;61166;54.228;37.632;2023-04-24T03:52:24;22.70;;;13.60;;
72974;SDS011;61166;54.228;37.632;2023-04-24T03:54:50;20.75;;;13.38;;
72974;SDS011;61166;54.228;37.632;2023-04-24T03:57:17;26.25;;;17.52;;
72974;SDS011;61166;54.228;37.632;2023-04-24T03:59:43;25.80;;;19.17;;
72974;SDS011;61166;54.228;37.632;2023-04-24T04:02:10;23.13;;;19.98;;
72974;SDS011;61166;54.228;37.632;2023-04-24T04:04:37;21.63;;;19.33;;
72974;SDS011;61166;54.228;37.632;2023-04-24T04:07:03;24.80;;;19.35;;
72974;SDS011;61166;54.228;37.632;2023-04-24T04:09:30;23.42;;;17.50;;
72974;SDS011;61166;54.228;37.632;2023-04-24T04:11:56;26.20;;;17.40;;
72974;SDS011;61166;54.228;37.632;2023-04-24T04:14:23;21.80;;;15.20;;
72974;SDS011;61166;54.228;37.632;2023-04-24T04:16:49;22.60;;;18.52;;
72974;SDS011;61166;54.228;37.632;2023-04-24T04:19:19;19.48;;;14.40;;
72974;SDS011;61166;54.228;37.632;2023-04-24T04:21:46;22.08;;;14.82;;
72974;SDS011;61166;54.228;37.632;2023-04-24T04:24:12;24.33;;;13.07;;
72974;SDS011;61166;54.228;37.632;2023-04-24T04:26:39;26.88;;;13.23;;
72974;SDS011;61166;54.228;37.632;2023-04-24T04:29:05;25.00;;;13.35;;
72974;SDS011;61166;54.228;37.632;2023-04-24T04:31:31;25.67;;;13.70;;
72974;SDS011;61166;54.228;37.632;2023-04-24T04:33:58;30.83;;;14.82;;
72974;SDS011;61166;54.228;37.632;2023-04-24T04:36:24;25.17;;;14.83;;
72974;SDS011;61166;54.228;37.632;2023-04-24T04:38:51;32.20;;;13.88;;
72974;SDS011;61166;54.228;37.632;2023-04-24T04:41:17;29.15;;;18.65;;
72974;SDS011;61166;54.228;37.632;2023-04-24T04:43:43;27.88;;;15.05;;
72974;SDS011;61166;54.228;37.632;2023-04-24T04:46:10;29.80;;;15.63;;
72974;SDS011;61166;54.228;37.632;2023-04-24T04:48:36;32.60;;;15.40;;
72974;SDS011;61166;54.228;37.632;2023-04-24T04:51:03;30.08;;;15.40;;
72974;SDS011;61166;54.228;37.632;2023-04-24T04:53:29;43.65;;;16.88;;
72974;SDS011;61166;54.228;37.632;2023-04-24T04:55:55;36.72;;;15.35;;
72974;SDS011;61166;54.228;37.632;2023-04-24T04:58:22;35.20;;;16.42;;
72974;SDS011;61166;54.228;37.632;2023-04-24T05:00:48;45.23;;;16.57;;
72974;SDS011;61166;54.228;37.632;2023-04-24T05:03:15;52.45;;;16.17;;
72974;SDS011;61166;54.228;37.632;2023-04-24T05:05:46;38.15;;;16.60;;
72974;SDS011;61166;54.228;37.632;2023-04-24T05:08:13;29.92;;;17.20;;
72974;SDS011;61166;54.228;37.632;2023-04-24T05:10:52;32.38;;;16.60;;
72974;SDS011;61166;54.228;37.632;2023-04-24T05:13:18;41.43;;;15.87;;
72974;SDS011;61166;54.228;37.632;2023-04-24T05:16:01;35.90;;;16.25;;
72974;SDS011;61166;54.228;37.632;2023-04-24T05:18:27;44.13;;;17.55;;
72974;SDS011;61166;54.228;37.632;2023-04-24T05:20:54;36.42;;;15.50;;
72974;SDS011;61166;54.228;37.632;2023-04-24T05:23:20;37.28;;;18.45;;
72974;SDS011;61166;54.228;37.632;2023-04-24T05:25:46;33.53;;;17.03;;
72974;SDS011;61166;54.228;37.632;2023-04-24T05:28:13;36.22;;;16.27;;
72974;SDS011;61166;54.228;37.632;2023-04-24T05:30:39;28.98;;;16.20;;
72974;SDS011;61166;54.228;37.632;2023-04-24T05:33:05;38.08;;;18.33;;
72974;SDS011;61166;54.228;37.632;2023-04-24T05:35:32;33.08;;;16.83;;
72974;SDS011;61166;54.228;37.632;2023-04-24T05:37:58;43.30;;;18.53;;
72974;SDS011;61166;54.228;37.632;2023-04-24T05:40:25;34.88;;;17.33;;
72974;SDS011;61166;54.228;37.632;2023-04-24T05:42:51;37.15;;;18.90;;
72974;SDS011;61166;54.228;37.632;2023-04-24T05:45:18;37.88;;;19.48;;
72974;SDS011;61166;54.228;37.632;2023-04-24T05:47:44;40.30;;;19.83;;
72974;SDS011;61166;54.228;37.632;2023-04-24T05:50:11;39.73;;;18.90;;
72974;SDS011;61166;54.228;37.632;2023-04-24T05:52:37;43.75;;;19.17;;
72974;SDS011;61166;54.228;37.632;2023-04-24T05:55:03;42.88;;;19.40;;
72974;SDS011;61166;54.228;37.632;2023-04-24T05:57:30;40.45;;;18.95;;
72974;SDS011;61166;54.228;37.632;2023-04-24T05:59:57;37.83;;;19.35;;
72974;SDS011;61166;54.228;37.632;2023-04-24T06:02:23;44.97;;;19.10;;
72974;SDS011;61166;54.228;37.632;2023-04-24T06:04:50;40.38;;;19.58;;
72974;SDS011;61166;54.228;37.632;2023-04-24T06:07:17;48.00;;;20.13;;
72974;SDS011;61166;54.228;37.632;2023-04-24T06:09:43;42.78;;;20.80;;
72974;SDS011;61166;54.228;37.632;2023-04-24T06:12:10;43.30;;;20.05;;
72974;SDS011;61166;54.228;37.632;2023-04-24T06:14:36;39.90;;;21.37;;
72974;SDS011;61166;54.228;37.632;2023-04-24T06:17:03;43.30;;;19.55;;
72974;SDS011;61166;54.228;37.632;2023-04-24T06:19:29;48.15;;;20.85;;
72974;SDS011;61166;54.228;37.632;2023-04-24T06:21:56;38.17;;;20.90;;
72974;SDS011;61166;54.228;37.632;2023-04-24T06:24:24;42.22;;;21.50;;
72974;SDS011;61166;54.228;37.632;2023-04-24T06:26:53;45.37;;;20.77;;
72974;SDS011;61166;54.228;37.632;2023-04-24T06:29:20;53.83;;;21.20;;
72974;SDS011;61166;54.228;37.632;2023-04-24T06:31:46;37.85;;;20.35;;
72974;SDS011;61166;54.228;37.632;2023-04-24T06:34:13;36.38;;;19.85;;
72974;SDS011;61166;54.228;37.632;2023-04-24T06:36:39;37.80;;;19.27;;
72974;SDS011;61166;54.228;37.632;2023-04-24T06:39:06;40.00;;;18.70;;
72974;SDS011;61166;54.228;37.632;2023-04-24T06:41:33;40.83;;;18.95;;
72974;SDS011;61166;54.228;37.632;2023-04-24T06:43:59;42.55;;;22.23;;
72974;SDS011;61166;54.228;37.632;2023-04-24T06:46:26;35.97;;;18.42;;
72974;SDS011;61166;54.228;37.632;2023-04-24T06:48:53;33.97;;;20.75;;
72974;SDS011;61166;54.228;37.632;2023-04-24T06:51:20;25.53;;;18.93;;
72974;SDS011;61166;54.228;37.632;2023-04-24T06:53:46;38.70;;;19.92;;
72974;SDS011;61166;54.228;37.632;2023-04-24T06:56:15;36.45;;;21.08;;
72974;SDS011;61166;54.228;37.632;2023-04-24T06:58:41;34.08;;;19.90;;
72974;SDS011;61166;54.228;37.632;2023-04-24T07:01:08;32.83;;;21.60;;
72974;SDS011;61166;54.228;37.632;2023-04-24T07:03:35;32.57;;;19.57;;
72974;SDS011;61166;54.228;37.632;2023-04-24T07:06:01;34.55;;;21.67;;
72974;SDS011;61166;54.228;37.632;2023-04-24T07:08:28;40.22;;;26.80;;
72974;SDS011;61166;54.228;37.632;2023-04-24T07:10:55;29.75;;;20.92;;
72974;SDS011;61166;54.228;37.632;2023-04-24T07:13:22;36.97;;;23.13;;
72974;SDS011;61166;54.228;37.632;2023-04-24T07:15:49;34.20;;;21.63;;
72974;SDS011;61166;54.228;37.632;2023-04-24T07:18:16;30.17;;;18.58;;
72974;SDS011;61166;54.228;37.632;2023-04-24T07:20:43;29.85;;;18.33;;
72974;SDS011;61166;54.228;37.632;2023-04-24T07:23:09;30.00;;;18.02;;
72974;SDS011;61166;54.228;37.632;2023-04-24T07:25:36;27.48;;;19.52;;
72974;SDS011;61166;54.228;37.632;2023-04-24T07:28:02;34.20;;;21.20;;
72974;SDS011;61166;54.228;37.632;2023-04-24T07:30:29;26.77;;;16.75;;
72974;SDS011;61166;54.228;37.632;2023-04-24T07:32:55;22.70;;;17.58;;
72974;SDS011;61166;54.228;37.632;2023-04-24T07:35:22;22.73;;;17.30;;
72974;SDS011;61166;54.228;37.632;2023-04-24T07:37:48;19.30;;;14.63;;
72974;SDS011;61166;54.228;37.632;2023-04-24T07:40:15;25.47;;;16.17;;
72974;SDS011;61166;54.228;37.632;2023-04-24T07:42:42;22.58;;;14.05;;
72974;SDS011;61166;54.228;37.632;2023-04-24T07:45:08;23.52;;;15.55;;
72974;SDS011;61166;54.228;37.632;2023-04-24T07:47:35;20.33;;;13.75;;
72974;SDS011;61166;54.228;37.632;2023-04-24T07:50:02;19.10;;;13.55;;
72974;SDS011;61166;54.228;37.632;2023-04-24T07:52:29;18.30;;;13.50;;
72974;SDS011;61166;54.228;37.632;2023-04-24T07:54:56;20.98;;;13.65;;
72974;SDS011;61166;54.228;37.632;2023-04-24T07:57:22;23.92;;;13.20;;
72974;SDS011;61166;54.228;37.632;2023-04-24T07:59:49;23.98;;;12.95;;
72974;SDS011;61166;54.228;37.632;2023-04-24T08:02:15;19.75;;;11.73;;
72974;SDS011;61166;54.228;37.632;2023-04-24T08:04:42;20.00;;;8.17;;
72974;SDS011;61166;54.228;37.632;2023-04-24T08:07:09;14.43;;;7.68;;
72974;SDS011;61166;54.228;37.632;2023-04-24T08:09:36;13.35;;;8.25;;
72974;SDS011;61166;54.228;37.632;2023-04-24T08:12:02;13.15;;;8.27;;
72974;SDS011;61166;54.228;37.632;2023-04-24T08:14:29;13.98;;;8.90;;
72974;SDS011;61166;54.228;37.632;2023-04-24T08:16:56;13.93;;;8.30;;
72974;SDS011;61166;54.228;37.632;2023-04-24T08:19:23;14.02;;;8.90;;
72974;SDS011;61166;54.228;37.632;2023-04-24T08:21:49;12.43;;;8.07;;
72974;SDS011;61166;54.228;37.632;2023-04-24T08:24:16;13.55;;;7.63;;
72974;SDS011;61166;54.228;37.632;2023-04-24T08:26:42;7.35;;;5.07;;
72974;SDS011;61166;54.228;37.632;2023-04-24T08:29:09;7.60;;;4.70;;
72974;SDS011;61166;54.228;37.632;2023-04-24T08:31:35;5.78;;;4.65;;
72974;SDS011;61166;54.228;37.632;2023-04-24T08:34:02;7.57;;;5.70;;
72974;SDS011;61166;54.228;37.632;2023-04-24T08:36:29;9.05;;;5.05;;
72974;SDS011;61166;54.228;37.632;2023-04-24T08:39:11;13.32;;;7.32;;
72974;SDS011;61166;54.228;37.632;2023-04-24T08:41:37;11.30;;;6.33;;
72974;SDS011;61166;54.228;37.632;2023-04-24T08:44:06;7.15;;;5.20;;
72974;SDS011;61166;54.228;37.632;2023-04-24T08:46:35;7.55;;;6.03;;
72974;SDS011;61166;54.228;37.632;2023-04-24T08:49:03;10.50;;;5.15;;
72974;SDS011;61166;54.228;37.632;2023-04-24T08:51:31;7.15;;;4.50;;
72974;SDS011;61166;54.228;37.632;2023-04-24T08:53:57;5.80;;;3.97;;
72974;SDS011;61166;54.228;37.632;2023-04-24T08:56:24;4.55;;;3.13;;
72974;SDS011;61166;54.228;37.632;2023-04-24T08:58:51;6.32;;;4.00;;
72974;SDS011;61166;54.228;37.632;2023-04-24T09:01:19;6.45;;;3.85;;
72974;SDS011;61166;54.228;37.632;2023-04-24T09:03:50;10.73;;;6.85;;
72974;SDS011;61166;54.228;37.632;2023-04-24T09:06:18;6.60;;;4.13;;
72974;SDS011;61166;54.228;37.632;2023-04-24T09:08:47;6.32;;;4.18;;
72974;SDS011;61166;54.228;37.632;2023-04-24T09:11:18;10.38;;;5.45;;
72974;SDS011;61166;54.228;37.632;2023-04-24T09:13:45;15.25;;;8.95;;
72974;SDS011;61166;54.228;37.632;2023-04-24T09:16:12;6.47;;;5.00;;
72974;SDS011;61166;54.228;37.632;2023-04-24T09:18:40;7.07;;;4.80;;
72974;SDS011;61166;54.228;37.632;2023-04-24T09:21:07;6.53;;;4.30;;
72974;SDS011;61166;54.228;37.632;2023-04-24T09:23:35;7.88;;;5.55;;
72974;SDS011;61166;54.228;37.632;2023-04-24T09:26:02;7.32;;;4.07;;
72974;SDS011;61166;54.228;37.632;2023-04-24T09:28:35;7.47;;;4.78;;
72974;SDS011;61166;54.228;37.632;2023-04-24T09:31:04;8.00;;;5.00;;
72974;SDS011;61166;54.228;37.632;2023-04-24T09:33:31;6.13;;;3.80;;
72974;SDS011;61166;54.228;37.632;2023-04-24T09:35:57;5.82;;;5.13;;
72974;SDS011;61166;54.228;37.632;2023-04-24T09:38:34;6.50;;;5.75;;
72974;SDS011;61166;54.228;37.632;2023-04-24T09:41:03;9.95;;;5.57;;
72974;SDS011;61166;54.228;37.632;2023-04-24T09:43:31;4.87;;;3.87;;
72974;SDS011;61166;54.228;37.632;2023-04-24T09:45:59;6.75;;;4.90;;
72974;SDS011;61166;54.228;37.632;2023-04-24T09:48:33;10.90;;;5.43;;
72974;SDS011;61166;54.228;37.632;2023-04-24T09:51:02;6.75;;;5.38;;
72974;SDS011;61166;54.228;37.632;2023-04-24T09:53:30;8.05;;;5.47;;
72974;SDS011;61166;54.228;37.632;2023-04-24T09:56:07;8.30;;;4.77;;
72974;SDS011;61166;54.228;37.632;2023-04-24T09:58:35;13.73;;;6.45;;
72974;SDS011;61166;54.228;37.632;2023-04-24T10:01:02;5.65;;;4.45;;
72974;SDS011;61166;54.228;37.632;2023-04-24T10:03:32;9.13;;;6.13;;
72974;SDS011;61166;54.228;37.632;2023-04-24T10:06:00;6.68;;;4.93;;
72974;SDS011;61166;54.228;37.632;2023-04-24T10:08:32;9.87;;;5.00;;
72974;SDS011;61166;54.228;37.632;2023-04-24T10:11:00;11.27;;;4.95;;
72974;SDS011;61166;54.228;37.632;2023-04-24T10:13:27;8.48;;;4.70;;
72974;SDS011;61166;54.228;37.632;2023-04-24T10:15:54;7.72;;;3.80;;
72974;SDS011;61166;54.228;37.632;2023-04-24T10:18:22;6.55;;;3.92;;
72974;SDS011;61166;54.228;37.632;2023-04-24T10:20:50;8.33;;;4.50;;
72974;SDS011;61166;54.228;37.632;2023-04-24T10:23:19;6.55;;;4.10;;
72974;SDS011;61166;54.228;37.632;2023-04-24T10:25:46;8.52;;;5.15;;
72974;SDS011;61166;54.228;37.632;2023-04-24T10:28:13;7.18;;;4.88;;
72974;SDS011;61166;54.228;37.632;2023-04-24T10:30:40;9.18;;;6.60;;
72974;SDS011;61166;54.228;37.632;2023-04-24T10:33:10;5.83;;;3.50;;
72974;SDS011;61166;54.228;37.632;2023-04-24T10:35:38;7.38;;;4.75;;
72974;SDS011;61166;54.228;37.632;2023-04-24T10:38:13;11.02;;;5.80;;
72974;SDS011;61166;54.228;37.632;2023-04-24T10:40:43;6.55;;;4.43;;
72974;SDS011;61166;54.228;37.632;2023-04-24T10:43:10;6.90;;;3.88;;
72974;SDS011;61166;54.228;37.632;2023-04-24T10:45:36;7.47;;;4.17;;
72974;SDS011;61166;54.228;37.632;2023-04-24T10:48:06;6.97;;;3.88;;
72974;SDS011;61166;54.228;37.632;2023-04-24T10:51:10;5.72;;;4.15;;
72974;SDS011;61166;54.228;37.632;2023-04-24T10:53:29;7.30;;;3.97;;
72974;SDS011;61166;54.228;37.632;2023-04-24T10:58:23;11.57;;;5.10;;
72974;SDS011;61166;54.228;37.632;2023-04-24T11:00:57;5.35;;;4.25;;
72974;SDS011;61166;54.228;37.632;2023-04-24T11:03:26;6.25;;;4.78;;
72974;SDS011;61166;54.228;37.632;2023-04-24T11:05:58;7.57;;;5.70;;
72974;SDS011;61166;54.228;37.632;2023-04-24T11:08:28;8.50;;;5.35;;
72974;SDS011;61166;54.228;37.632;2023-04-24T11:11:04;6.50;;;3.90;;
72974;SDS011;61166;54.228;37.632;2023-04-24T11:18:49;14.10;;;8.30;;
72974;SDS011;61166;54.228;37.632;2023-04-24T11:21:17;12.80;;;6.95;;
72974;SDS011;61166;54.228;37.632;2023-04-24T11:23:44;9.97;;;4.27;;
72974;SDS011;61166;54.228;37.632;2023-04-24T11:26:11;10.50;;;4.32;;
72974;SDS011;61166;54.228;37.632;2023-04-24T11:28:48;7.22;;;4.88;;
72974;SDS011;61166;54.228;37.632;2023-04-24T11:31:37;9.77;;;4.65;;
72974;SDS011;61166;54.228;37.632;2023-04-24T11:34:09;9.05;;;4.18;;
72974;SDS011;61166;54.228;37.632;2023-04-24T11:36:39;10.03;;;3.97;;
72974;SDS011;61166;54.228;37.632;2023-04-24T11:39:06;9.40;;;4.40;;
72974;SDS011;61166;54.228;37.632;2023-04-24T11:41:33;10.38;;;4.10;;
72974;SDS011;61166;54.228;37.632;2023-04-24T11:44:00;6.35;;;3.78;;
72974;SDS011;61166;54.228;37.632;2023-04-24T11:46:29;6.10;;;4.32;;
72974;SDS011;61166;54.228;37.632;2023-04-24T11:48:56;10.43;;;4.93;;
72974;SDS011;61166;54.228;37.632;2023-04-24T11:51:23;9.07;;;4.93;;
72974;SDS011;61166;54.228;37.632;2023-04-24T11:53:57;9.75;;;5.47;;
72974;SDS011;61166;54.228;37.632;2023-04-24T11:56:29;8.23;;;4.70;;
72974;SDS011;61166;54.228;37.632;2023-04-24T11:58:56;7.90;;;4.90;;
72974;SDS011;61166;54.228;37.632;2023-04-24T12:01:22;6.87;;;3.97;;
72974;SDS011;61166;54.228;37.632;2023-04-24T12:03:49;7.97;;;4.03;;
72974;SDS011;61166;54.228;37.632;2023-04-24T12:06:16;5.55;;;4.15;;
72974;SDS011;61166;54.228;37.632;2023-04-24T12:08:45;7.25;;;4.35;;
72974;SDS011;61166;54.228;37.632;2023-04-24T12:11:14;5.95;;;4.15;;
72974;SDS011;61166;54.228;37.632;2023-04-24T12:13:40;5.57;;;3.63;;
72974;SDS011;61166;54.228;37.632;2023-04-24T12:16:07;7.75;;;3.58;;
72974;SDS011;61166;54.228;37.632;2023-04-24T12:18:34;7.43;;;3.55;;
72974;SDS011;61166;54.228;37.632;2023-04-24T12:23:43;6.00;;;3.83;;
72974;SDS011;61166;54.228;37.632;2023-04-24T12:26:09;9.27;;;3.43;;
72974;SDS011;61166;54.228;37.632;2023-04-24T12:28:36;7.68;;;4.70;;
72974;SDS011;61166;54.228;37.632;2023-04-24T12:31:03;6.85;;;5.13;;
72974;SDS011;61166;54.228;37.632;2023-04-24T12:33:33;9.10;;;4.60;;
72974;SDS011;61166;54.228;37.632;2023-04-24T12:36:00;12.80;;;4.57;;
72974;SDS011;61166;54.228;37.632;2023-04-24T12:38:27;7.70;;;4.20;;
72974;SDS011;61166;54.228;37.632;2023-04-24T12:41:04;5.90;;;4.00;;
72974;SDS011;61166;54.228;37.632;2023-04-24T12:43:30;7.72;;;4.95;;
72974;SDS011;61166;54.228;37.632;2023-04-24T12:45:57;7.07;;;4.63;;
72974;SDS011;61166;54.228;37.632;2023-04-24T12:48:23;6.80;;;3.95;;
72974;SDS011;61166;54.228;37.632;2023-04-24T12:50:50;9.20;;;4.20;;
72974;SDS011;61166;54.228;37.632;2023-04-24T12:53:16;8.30;;;4.35;;
72974;SDS011;61166;54.228;37.632;2023-04-24T12:55:43;8.48;;;4.32;;
72974;SDS011;61166;54.228;37.632;2023-04-24T12:58:09;7.40;;;3.95;;
72974;SDS011;61166;54.228;37.632;2023-04-24T13:00:36;11.23;;;4.15;;
72974;SDS011;61166;54.228;37.632;2023-04-24T13:03:03;12.97;;;4.90;;
72974;SDS011;61166;54.228;37.632;2023-04-24T13:05:29;10.50;;;4.43;;
72974;SDS011;61166;54.228;37.632;2023-04-24T13:07:57;7.20;;;4.55;;
72974;SDS011;61166;54.228;37.632;2023-04-24T13:10:23;7.82;;;4.22;;
72974;SDS011;61166;54.228;37.632;2023-04-24T13:12:49;10.30;;;5.40;;
72974;SDS011;61166;54.228;37.632;2023-04-24T13:15:16;8.97;;;5.17;;
72974;SDS011;61166;54.228;37.632;2023-04-24T13:17:42;8.10;;;5.38;;
72974;SDS011;61166;54.228;37.632;2023-04-24T13:20:09;6.60;;;4.72;;
72974;SDS011;61166;54.228;37.632;2023-04-24T13:22:35;9.40;;;4.88;;
72974;SDS011;61166;54.228;37.632;2023-04-24T13:25:02;8.63;;;5.00;;
72974;SDS011;61166;54.228;37.632;2023-04-24T13:27:29;9.50;;;5.10;;
72974;SDS011;61166;54.228;37.632;2023-04-24T13:29:55;13.77;;;5.35;;
72974;SDS011;61166;54.228;37.632;2023-04-24T13:32:22;9.35;;;4.22;;
72974;SDS011;61166;54.228;37.632;2023-04-24T13:34:48;11.63;;;4.40;;
72974;SDS011;61166;54.228;37.632;2023-04-24T13:37:15;8.68;;;4.60;;
72974;SDS011;61166;54.228;37.632;2023-04-24T13:39:41;7.90;;;4.57;;
72974;SDS011;61166;54.228;37.632;2023-04-24T13:42:08;10.10;;;5.72;;
72974;SDS011;61166;54.228;37.632;2023-04-24T13:44:34;9.98;;;4.93;;
72974;SDS011;61166;54.228;37.632;2023-04-24T13:47:00;8.95;;;4.28;;
72974;SDS011;61166;54.228;37.632;2023-04-24T13:49:27;7.68;;;4.25;;
72974;SDS011;61166;54.228;37.632;2023-04-24T13:51:54;15.00;;;7.03;;
72974;SDS011;61166;54.228;37.632;2023-04-24T13:54:20;19.98;;;5.50;;
72974;SDS011;61166;54.228;37.632;2023-04-24T13:56:47;7.20;;;4.00;;
72974;SDS011;61166;54.228;37.632;2023-04-24T13:59:13;4.30;;;3.03;;
72974;SDS011;61166;54.228;37.632;2023-04-24T14:01:40;7.45;;;4.20;;
72974;SDS011;61166;54.228;37.632;2023-04-24T14:04:06;12.90;;;5.20;;
72974;SDS011;61166;54.228;37.632;2023-04-24T14:06:33;11.02;;;5.20;;
72974;SDS011;61166;54.228;37.632;2023-04-24T14:08:59;6.20;;;4.30;;
72974;SDS011;61166;54.228;37.632;2023-04-24T14:11:26;9.05;;;4.10;;
72974;SDS011;61166;54.228;37.632;2023-04-24T14:13:54;6.45;;;3.45;;
72974;SDS011;61166;54.228;37.632;2023-04-24T14:16:20;8.53;;;3.43;;
72974;SDS011;61166;54.228;37.632;2023-04-24T14:18:47;5.78;;;3.22;;
72974;SDS011;61166;54.228;37.632;2023-04-24T14:21:13;7.70;;;3.65;;
72974;SDS011;61166;54.228;37.632;2023-04-24T14:23:39;9.40;;;3.70;;
72974;SDS011;61166;54.228;37.632;2023-04-24T14:26:09;8.90;;;3.88;;
72974;SDS011;61166;54.228;37.632;2023-04-24T14:28:36;8.07;;;3.17;;